Garrison, ND

7:12 PM CDT on October 21, 2014 (GMT -0500)
Garrison | Change Station
CLOSE
Current Station
Airport
Location: Garrison,
Elevation: 1909 ft
Nearby Weather Stations

Elev 1909 ft 47.65 °N, 101.44 °W | Updated 20 minutes ago

Clear
Clear
69 °F
Feels Like 69 °F
N
4
Wind Variable Wind from ENE
Gusts 17 mph

Today
High -- | Low -- °F
--% Chance of Precip.
Yesterday
High -- | Low -- °F
Precip. -- in
8:13 AM 6:46 PM
Waning Crescent, 4% visible
Pressure 29.62 in
Visibility -9999.0 miles
Clouds
Dew Point 48 °F
Humidity 47%
Rainfall 0.00 in
Snow Depth Not available.
UV Not available.
Pollen 2.70 out of 12
Air Quality Not available.
Flu Activity Local Activity
METAR KN60 212352Z AUTO 06003KT 21/09 A2962 RMK AO1 SLP029 T02060089 10239 20178 56010

More Conditions Fewer Conditions

Pressure 29.62 in
Visibility -9999.0 miles
Clouds
Dew Point 48 °F
Humidity 47%
Rainfall 0.00 in
Snow Depth Not available.
UV Not available.
Pollen 2.70 out of 12
Air Quality Not available.
Flu Activity Local Activity
METAR KN60 212352Z AUTO 06003KT 21/09 A2962 RMK AO1 SLP029 T02060089 10239 20178 56010

More Conditions Fewer Conditions

10-Day Weather Forecast

Almanac

Astronomy

Oct. 21, 2014 Rise Set
Actual Time 8:13 AM CDT 6:46 PM CDT
Civil Twilight 7:41 AM CDT 7:17 PM CDT
Nautical Twilight 7:06 AM CDT 7:53 PM CDT
Astronomical Twilight 6:30 AM CDT 8:29 PM CDT
Moon 5:50 AM CDT (10/21) 5:48 PM CDT (10/21)
Length of Visible Light 11h 35m
Length of Day
10h 33m
Tomorrow will be 3m 16s shorter.
Waning Crescent, 4% of the Moon is Illuminated
Today
Waning Crescent
Oct 23
New
Oct 30
First Quarter
Nov 6
Full
Nov 14
Last Quarter

Today's Extremes

State Highs State Lows

Community

WunderPhotos

Upload Photos

1,763,826 photos uploaded!

Nearby

Snow Depth

Station Depth Elevation
No new snow has been reported.

Earthquake Activity

City Distance Mag. Time & Date
No recent earthquake activity has been reported nearby.
Minimum magnitude displayed is 2.5.

Coastal Water Temperatures

Place Temperature
No Stations Reporting

Nearby Weather Stations